Time;durP1;ratioP1;P1;durP2;ratioP2;P2;SDS_P1;SDS_P2;PMS_P1;PMS_P2;Temp;Humidity;BMP_temperature;BMP_pressure;BME280_temperature;BME280_humidity;BME280_pressure;Samples;Min_cycle;Max_cycle;Signal;HPM_P1;HPM_P2
2022/11/06 00:00:58;;;;;;;9.17;8.03;;;6.40;1.00;;;;;;6298374;28;20232;-53
2022/11/06 00:04:02;;;;;;;11.23;8.13;;;6.40;1.00;;;;;;6305138;28;20256;-53
2022/11/06 00:07:04;;;;;;;10.93;8.70;;;6.60;1.00;;;;;;6283889;28;20233;-53
2022/11/06 00:10:07;;;;;;;10.83;8.83;;;6.50;1.00;;;;;;6304547;28;20731;-53
2022/11/06 00:13:11;;;;;;;15.50;8.43;;;6.50;1.00;;;;;;6285176;28;20565;-49
2022/11/06 00:16:15;;;;;;;9.63;8.73;;;6.50;1.00;;;;;;6284382;28;20237;-53
2022/11/06 00:19:17;;;;;;;14.17;9.60;;;6.40;1.00;;;;;;6283957;28;20237;-53
2022/11/06 00:22:20;;;;;;;12.33;10.33;;;6.40;1.00;;;;;;6283947;28;20241;-58
2022/11/06 00:25:23;;;;;;;13.67;9.40;;;6.30;1.00;;;;;;6286051;28;20469;-53
2022/11/06 00:28:27;;;;;;;15.57;9.87;;;6.50;1.00;;;;;;6284725;28;20233;-54
2022/11/06 00:31:32;;;;;;;16.07;10.70;;;6.30;1.00;;;;;;6285407;28;20337;-53
2022/11/06 00:34:35;;;;;;;15.50;10.47;;;6.50;1.00;;;;;;6283375;28;20237;-53
2022/11/06 00:37:38;;;;;;;10.87;9.77;;;6.50;1.00;;;;;;6298915;28;20236;-52
2022/11/06 00:40:42;;;;;;;11.17;9.80;;;6.10;1.00;;;;;;6294384;28;20694;-53
2022/11/06 00:43:50;;;;;;;12.37;10.00;;;6.20;1.00;;;;;;6292077;28;20237;-54
2022/11/06 00:46:58;;;;;;;12.77;9.80;;;6.30;1.00;;;;;;6283830;28;20241;-53
2022/11/06 00:50:02;;;;;;;15.57;10.27;;;6.40;1.00;;;;;;6283415;28;20237;-53
2022/11/06 00:53:05;;;;;;;16.00;10.97;;;6.20;1.00;;;;;;6282868;28;20241;-53
2022/11/06 00:56:10;;;;;;;10.40;9.47;;;6.10;1.00;;;;;;6283919;28;20226;-53
2022/11/06 00:59:14;;;;;;;15.93;9.20;;;6.10;1.00;;;;;;6274412;28;20233;-52
2022/11/06 01:02:18;;;;;;;11.57;8.87;;;6.00;1.00;;;;;;6301511;28;20252;-53
2022/11/06 01:05:21;;;;;;;14.33;9.23;;;6.00;1.00;;;;;;6307894;28;20777;-54
2022/11/06 01:08:24;;;;;;;10.87;9.40;;;6.00;1.00;;;;;;6297909;28;20232;-53
2022/11/06 01:11:29;;;;;;;13.23;8.90;;;6.30;1.00;;;;;;6300314;28;20237;-52
2022/11/06 01:14:53;;;;;;;12.37;9.57;;;6.10;1.00;;;;;;6284285;28;20687;-52
2022/11/06 01:17:56;;;;;;;13.17;9.37;;;6.20;1.00;;;;;;6295265;28;20236;-52
2022/11/06 01:20:59;;;;;;;11.23;8.67;;;6.30;1.00;;;;;;6292957;28;20228;-52
2022/11/06 01:24:04;;;;;;;15.53;10.07;;;6.00;1.00;;;;;;6310475;28;20236;-52
2022/11/06 01:27:14;;;;;;;16.00;9.07;;;6.00;1.00;;;;;;6290020;28;20248;-53
2022/11/06 01:30:36;;;;;;;10.50;9.47;;;6.00;1.00;;;;;;6284611;28;20241;-53
2022/11/06 01:33:45;;;;;;;16.30;10.77;;;6.00;1.00;;;;;;6299023;28;20233;-52
2022/11/06 01:36:47;;;;;;;14.77;10.10;;;6.00;1.00;;;;;;6284832;28;20252;-53
2022/11/06 01:39:50;;;;;;;12.63;9.83;;;6.00;1.00;;;;;;6300296;28;20236;-52
2022/11/06 01:42:53;;;;;;;10.33;9.30;;;5.80;1.00;;;;;;6299424;28;20259;-53
2022/11/06 01:45:57;;;;;;;11.13;9.93;;;5.80;1.00;;;;;;6285202;28;20608;-52
2022/11/06 01:49:03;;;;;;;11.10;9.83;;;5.70;1.00;;;;;;6282363;28;20228;-53
2022/11/06 01:52:11;;;;;;;10.00;8.90;;;5.80;1.00;;;;;;6281818;28;20244;-53
2022/11/06 01:55:19;;;;;;;11.07;9.17;;;5.90;1.00;;;;;;6297518;28;20244;-53
2022/11/06 01:58:24;;;;;;;13.37;10.60;;;5.80;1.00;;;;;;6307315;28;20264;-53
2022/11/06 02:01:28;;;;;;;11.13;9.90;;;5.80;1.00;;;;;;6303358;28;20681;-52
2022/11/06 02:04:38;;;;;;;12.30;10.50;;;5.70;1.00;;;;;;6292350;28;20230;-53
2022/11/06 02:07:43;;;;;;;15.40;10.53;;;5.90;1.00;;;;;;6294093;28;20233;-53
2022/11/06 02:10:46;;;;;;;11.53;10.33;;;5.90;1.00;;;;;;6294468;28;20460;-52
2022/11/06 02:14:01;;;;;;;12.53;10.27;;;5.90;1.00;;;;;;6291416;28;20621;-54
2022/11/06 02:17:15;;;;;;;15.47;10.93;;;5.70;1.00;;;;;;6286625;28;20629;-54
2022/11/06 02:20:32;;;;;;;13.00;10.87;;;5.90;1.00;;;;;;6286602;28;20233;-52
2022/11/06 02:23:53;;;;;;;13.87;11.13;;;5.90;1.00;;;;;;6286150;28;20245;-54
2022/11/06 02:27:05;;;;;;;13.00;11.40;;;5.80;1.00;;;;;;6286311;28;20245;-53
2022/11/06 02:30:10;;;;;;;11.33;10.20;;;5.90;1.00;;;;;;6290390;28;20233;-53
2022/11/06 02:33:17;;;;;;;11.83;10.17;;;5.90;1.00;;;;;;6286628;28;20245;-52
2022/11/06 02:36:27;;;;;;;12.60;10.00;;;5.90;1.00;;;;;;6277966;28;20226;-52
2022/11/06 02:39:34;;;;;;;11.93;9.80;;;6.00;1.00;;;;;;6303314;28;20240;-53
2022/11/06 02:42:44;;;;;;;11.90;9.93;;;6.00;1.00;;;;;;6304941;28;20251;-53
2022/11/06 02:45:52;;;;;;;17.27;10.03;;;6.00;1.00;;;;;;6312581;28;20245;-53
2022/11/06 02:49:04;;;;;;;12.60;10.00;;;6.00;1.00;;;;;;6290632;28;20609;-52
2022/11/06 02:52:12;;;;;;;12.77;10.53;;;6.00;1.00;;;;;;6301412;28;20233;-52
2022/11/06 02:55:19;;;;;;;12.33;10.27;;;6.00;1.00;;;;;;6287309;28;20614;-53
2022/11/06 02:58:28;;;;;;;11.27;10.17;;;6.00;1.00;;;;;;6288578;28;20229;-52
2022/11/06 03:01:34;;;;;;;13.50;10.33;;;5.60;1.00;;;;;;6294220;28;20546;-53
2022/11/06 03:04:41;;;;;;;11.03;9.87;;;6.00;1.00;;;;;;6285785;28;20625;-53
2022/11/06 03:07:48;;;;;;;16.73;10.73;;;6.10;1.00;;;;;;6292327;28;20267;-52
2022/11/06 03:10:59;;;;;;;12.23;9.80;;;6.10;1.00;;;;;;6296545;27;20243;-53
2022/11/06 03:14:12;;;;;;;13.93;10.50;;;6.40;1.00;;;;;;6310048;28;20782;-53
2022/11/06 03:17:19;;;;;;;12.80;10.47;;;6.10;1.00;;;;;;6310888;28;20604;-53
2022/11/06 03:20:29;;;;;;;12.37;10.87;;;6.20;1.00;;;;;;6290559;28;20256;-52
2022/11/06 03:23:36;;;;;;;15.40;10.33;;;6.00;1.00;;;;;;6285639;28;20241;-54
2022/11/06 03:26:45;;;;;;;12.10;10.77;;;6.20;1.00;;;;;;6285481;28;20620;-54
2022/11/06 03:30:00;;;;;;;18.70;10.00;;;6.00;1.00;;;;;;6286643;28;20229;-53
2022/11/06 03:33:11;;;;;;;16.60;10.67;;;6.20;1.00;;;;;;6288632;28;20256;-54
2022/11/06 03:36:19;;;;;;;12.10;10.57;;;6.10;1.00;;;;;;6284981;28;20245;-54
2022/11/06 03:39:28;;;;;;;13.13;10.60;;;6.10;1.00;;;;;;6298731;28;20557;-53
2022/11/06 03:42:32;;;;;;;13.30;10.87;;;6.00;1.00;;;;;;6293242;28;20238;-53
2022/11/06 03:45:40;;;;;;;15.27;10.87;;;5.90;1.00;;;;;;6285808;28;20611;-53
2022/11/06 03:48:49;;;;;;;10.67;9.67;;;6.00;1.00;;;;;;6281987;28;20232;-54
2022/11/06 03:51:57;;;;;;;14.00;10.67;;;6.00;1.00;;;;;;6283947;28;20248;-54
2022/11/06 03:55:05;;;;;;;14.67;11.07;;;5.80;1.00;;;;;;6285315;28;20241;-52
2022/11/06 03:58:11;;;;;;;14.87;12.27;;;5.80;1.00;;;;;;6284626;27;20233;-53
2022/11/06 04:01:21;;;;;;;14.43;10.40;;;5.90;1.00;;;;;;6285290;28;20242;-53
2022/11/06 04:04:35;;;;;;;13.50;11.03;;;5.80;1.00;;;;;;6285010;28;20243;-53
2022/11/06 04:13:55;;;;;;;11.97;10.57;;;5.60;1.00;;;;;;6291623;28;20237;-54
2022/11/06 04:14:34;;;;;;;12.87;10.67;;;5.80;1.00;;;;;;6284042;28;20860;-53
2022/11/06 04:17:40;;;;;;;11.50;9.77;;;5.60;1.00;;;;;;6282817;28;20696;-52
2022/11/06 04:27:53;;;;;;;18.77;11.60;;;5.80;1.00;;;;;;6284728;28;20241;-55
2022/11/06 04:31:06;;;;;;;11.37;10.30;;;5.70;1.00;;;;;;6307165;28;20713;-54
2022/11/06 04:34:18;;;;;;;11.67;10.37;;;5.90;1.00;;;;;;6285522;28;20251;-54
2022/11/06 04:37:25;;;;;;;11.70;10.40;;;5.50;1.00;;;;;;6307124;28;20247;-52
2022/11/06 04:40:36;;;;;;;12.03;10.80;;;5.50;1.00;;;;;;6297722;28;20236;-54
2022/11/06 04:43:44;;;;;;;12.70;10.20;;;5.60;1.00;;;;;;6294647;28;20242;-52
2022/11/06 04:46:51;;;;;;;13.77;11.20;;;5.60;1.00;;;;;;6285997;28;20229;-53
2022/11/06 04:49:58;;;;;;;15.77;10.40;;;5.40;1.00;;;;;;6279666;28;20320;-53
2022/11/06 04:53:04;;;;;;;12.77;11.27;;;5.30;1.00;;;;;;6301525;28;20241;-53
2022/11/06 04:56:12;;;;;;;11.57;10.37;;;5.40;1.00;;;;;;6296059;28;20232;-52
2022/11/06 04:59:19;;;;;;;11.80;10.53;;;5.40;1.00;;;;;;6297878;28;20526;-54
2022/11/06 05:02:22;;;;;;;12.40;10.40;;;5.60;1.00;;;;;;6293394;28;20245;-52
2022/11/06 05:05:27;;;;;;;13.40;10.93;;;5.40;1.00;;;;;;6293165;28;20229;-52
2022/11/06 05:08:30;;;;;;;12.03;10.77;;;5.50;1.00;;;;;;6306786;28;20243;-52
2022/11/06 05:11:33;;;;;;;14.47;11.10;;;5.40;1.00;;;;;;6291023;28;20245;-54
2022/11/06 05:14:36;;;;;;;12.30;10.20;;;5.20;1.00;;;;;;6301574;28;20235;-53
2022/11/06 05:17:39;;;;;;;11.93;10.80;;;5.30;1.00;;;;;;6298459;28;20635;-53
2022/11/06 05:20:43;;;;;;;12.97;11.07;;;5.20;1.00;;;;;;6310336;28;20228;-54
2022/11/06 05:23:45;;;;;;;11.63;10.43;;;5.20;1.00;;;;;;6299772;28;20248;-53
2022/11/06 05:26:47;;;;;;;12.43;10.13;;;5.20;1.00;;;;;;6294991;28;20244;-53
2022/11/06 05:29:50;;;;;;;12.90;11.33;;;5.30;1.00;;;;;;6293057;28;20243;-47
2022/11/06 05:32:53;;;;;;;12.77;10.87;;;5.20;1.00;;;;;;6305613;28;20779;-52
2022/11/06 05:36:01;;;;;;;13.20;11.73;;;5.10;1.00;;;;;;6293718;27;20224;-52
2022/11/06 05:39:04;;;;;;;15.87;11.23;;;5.30;1.00;;;;;;6292082;27;20505;-51
2022/11/06 05:42:07;;;;;;;12.27;11.17;;;5.10;1.00;;;;;;6304817;27;20732;-52
2022/11/06 05:45:11;;;;;;;19.40;11.00;;;5.10;1.00;;;;;;6308668;27;20237;-53
2022/11/06 05:48:14;;;;;;;12.13;11.03;;;5.20;1.00;;;;;;6296617;27;20837;-53
2022/11/06 05:51:19;;;;;;;13.07;11.50;;;5.20;1.00;;;;;;6309002;27;20248;-53
2022/11/06 05:54:21;;;;;;;12.90;11.50;;;5.10;1.00;;;;;;6303380;27;20513;-53
2022/11/06 05:57:25;;;;;;;13.20;11.23;;;5.20;1.00;;;;;;6307805;27;20237;-57
2022/11/06 06:00:28;;;;;;;13.00;11.57;;;5.10;1.00;;;;;;6307717;28;20240;-52
2022/11/06 06:03:32;;;;;;;12.97;11.70;;;5.10;1.00;;;;;;6309693;27;20394;-53
2022/11/06 06:06:36;;;;;;;12.30;10.70;;;5.40;1.00;;;;;;6306279;27;20243;-53
2022/11/06 06:09:39;;;;;;;19.00;11.53;;;5.20;1.00;;;;;;6303471;28;20803;-52
2022/11/06 06:12:42;;;;;;;13.03;11.03;;;5.20;1.00;;;;;;6299469;27;20293;-53
2022/11/06 06:15:45;;;;;;;12.37;11.13;;;5.00;1.00;;;;;;6301868;27;20731;-53
2022/11/06 06:18:50;;;;;;;13.13;11.27;;;5.10;1.00;;;;;;6313351;27;20232;-53
2022/11/06 06:21:54;;;;;;;12.70;11.40;;;5.10;1.00;;;;;;6307485;27;20716;-53
2022/11/06 06:24:57;;;;;;;12.77;11.37;;;5.10;1.00;;;;;;6299784;27;20597;-53
2022/11/06 06:28:00;;;;;;;14.43;11.57;;;5.20;1.00;;;;;;6313967;27;20408;-59
2022/11/06 06:31:04;;;;;;;13.83;11.33;;;5.20;1.00;;;;;;6304232;27;20224;-53
2022/11/06 06:34:07;;;;;;;12.33;11.13;;;5.30;1.00;;;;;;6309542;27;20239;-52
2022/11/06 06:37:11;;;;;;;13.07;11.67;;;5.20;1.00;;;;;;6308182;27;20236;-53
2022/11/06 06:40:22;;;;;;;13.07;11.73;;;5.40;1.00;;;;;;6305294;27;20252;-53
2022/11/06 06:43:24;;;;;;;13.00;11.70;;;5.30;1.00;;;;;;6297625;27;20245;-54
2022/11/06 06:46:27;;;;;;;13.77;11.37;;;5.40;1.00;;;;;;6295663;27;20237;-53
2022/11/06 06:49:30;;;;;;;15.33;12.57;;;5.30;1.00;;;;;;6294451;28;20498;-53
2022/11/06 06:52:34;;;;;;;15.50;12.03;;;5.30;1.00;;;;;;6303648;28;20240;-53
2022/11/06 06:55:37;;;;;;;13.77;12.43;;;5.40;1.00;;;;;;6294789;28;20264;-54
2022/11/06 06:58:41;;;;;;;14.60;12.40;;;5.50;1.00;;;;;;6292226;28;20602;-53
2022/11/06 07:01:48;;;;;;;13.30;11.23;;;5.40;1.00;;;;;;6291652;28;20247;-52
2022/11/06 07:04:51;;;;;;;12.53;11.23;;;5.40;1.00;;;;;;6297146;28;20315;-54
2022/11/06 07:07:56;;;;;;;14.67;10.77;;;5.50;1.00;;;;;;6290905;28;20241;-53
2022/11/06 07:11:00;;;;;;;13.73;11.83;;;5.60;1.00;;;;;;6295330;28;20251;-54
2022/11/06 07:14:03;;;;;;;13.63;12.10;;;5.80;1.00;;;;;;6283940;28;20605;-47
2022/11/06 07:17:06;;;;;;;14.77;11.83;;;5.80;1.00;;;;;;6293001;28;20233;-52
2022/11/06 07:20:10;;;;;;;12.23;11.03;;;5.90;1.00;;;;;;6305330;28;20716;-52
2022/11/06 07:23:17;;;;;;;14.37;11.37;;;6.00;1.00;;;;;;6304653;28;20272;-53
2022/11/06 07:26:19;;;;;;;15.60;12.37;;;6.20;1.00;;;;;;6299635;28;20248;-53
2022/11/06 07:29:22;;;;;;;13.30;11.80;;;6.00;1.00;;;;;;6293794;28;20267;-52
2022/11/06 07:32:25;;;;;;;17.87;12.90;;;6.10;1.00;;;;;;6298040;28;20603;-53
2022/11/06 07:35:28;;;;;;;13.40;11.63;;;6.20;1.00;;;;;;6307386;28;20237;-53
2022/11/06 07:38:36;;;;;;;15.60;12.53;;;5.90;1.00;;;;;;6297858;28;20259;-53
2022/11/06 07:41:38;;;;;;;13.10;11.83;;;6.20;1.00;;;;;;6302393;28;20244;-53
2022/11/06 07:44:41;;;;;;;17.63;12.00;;;6.20;1.00;;;;;;6295513;28;20233;-53
2022/11/06 07:47:44;;;;;;;12.83;11.57;;;6.40;1.00;;;;;;6296840;28;20243;-53
2022/11/06 07:50:47;;;;;;;14.73;13.23;;;6.20;1.00;;;;;;6289205;28;20245;-54
2022/11/06 07:53:51;;;;;;;15.60;11.90;;;6.30;1.00;;;;;;6302473;28;20241;-53
2022/11/06 07:56:54;;;;;;;12.73;11.53;;;6.50;1.00;;;;;;6301138;28;20237;-52
2022/11/06 07:59:57;;;;;;;12.70;11.50;;;6.50;1.00;;;;;;6304832;27;20312;-54
2022/11/06 08:02:59;;;;;;;13.83;11.03;;;6.60;1.00;;;;;;6302714;28;20237;-54
2022/11/06 08:06:04;;;;;;;15.67;11.97;;;6.70;1.00;;;;;;6297756;28;20616;-54
2022/11/06 08:09:09;;;;;;;13.07;11.53;;;6.70;1.00;;;;;;6308336;27;20236;-58
2022/11/06 08:12:13;;;;;;;12.63;11.33;;;6.80;1.00;;;;;;6302101;28;20483;-53
2022/11/06 08:15:16;;;;;;;13.00;11.53;;;7.10;1.00;;;;;;6302618;28;20647;-51
2022/11/06 08:18:19;;;;;;;15.83;12.37;;;6.90;1.00;;;;;;6288768;28;20241;-54
2022/11/06 08:21:22;;;;;;;13.27;12.00;;;7.20;1.00;;;;;;6301381;28;20722;-52
2022/11/06 08:24:26;;;;;;;12.90;11.67;;;7.30;1.00;;;;;;6302065;28;20237;-53
2022/11/06 08:27:29;;;;;;;12.43;11.23;;;7.50;1.00;;;;;;6290872;28;20232;-52
2022/11/06 08:30:35;;;;;;;11.93;10.77;;;7.30;1.00;;;;;;6295105;28;20233;-53
2022/11/06 08:33:39;;;;;;;16.50;11.37;;;7.40;1.00;;;;;;6292593;28;20245;-54
2022/11/06 08:36:45;;;;;;;12.67;11.50;;;7.50;1.00;;;;;;6301014;28;20243;-53
2022/11/06 08:39:52;;;;;;;12.80;11.50;;;7.60;1.00;;;;;;6305565;28;20625;-53
2022/11/06 08:42:59;;;;;;;13.70;11.50;;;7.80;1.00;;;;;;6290015;28;20302;-54
2022/11/06 08:46:02;;;;;;;12.40;11.20;;;8.00;1.00;;;;;;6299806;28;20237;-53
2022/11/06 08:49:06;;;;;;;11.97;10.77;;;7.90;1.00;;;;;;6296509;28;20237;-54
2022/11/06 08:52:09;;;;;;;13.60;11.37;;;8.20;1.00;;;;;;6295927;28;20259;-54
2022/11/06 08:55:13;;;;;;;11.40;10.30;;;8.20;1.00;;;;;;6297241;28;20241;-53
2022/11/06 08:58:16;;;;;;;14.33;10.47;;;8.20;1.00;;;;;;6293300;28;20487;-53
2022/11/06 09:01:19;;;;;;;11.37;10.17;;;8.30;1.00;;;;;;6300845;28;20241;-52
2022/11/06 09:04:22;;;;;;;12.77;11.20;;;8.50;1.00;;;;;;6295279;28;20805;-53
2022/11/06 09:07:25;;;;;;;14.07;11.10;;;8.70;1.00;;;;;;6289142;28;20479;-53
2022/11/06 09:10:32;;;;;;;11.50;10.30;;;8.50;1.00;;;;;;6302446;28;20239;-57
2022/11/06 09:13:35;;;;;;;11.63;10.53;;;8.60;1.00;;;;;;6295067;28;20768;-54
2022/11/06 09:16:41;;;;;;;10.47;9.60;;;8.80;1.00;;;;;;6295968;28;20248;-54
2022/11/06 09:19:44;;;;;;;11.90;10.20;;;8.80;1.00;;;;;;6300237;28;20247;-53
2022/11/06 09:22:47;;;;;;;11.10;10.23;;;8.90;1.00;;;;;;6298730;28;20236;-53
2022/11/06 09:25:51;;;;;;;10.63;9.63;;;9.00;1.00;;;;;;6292278;28;20319;-53
2022/11/06 09:28:54;;;;;;;10.37;9.47;;;9.10;1.00;;;;;;6291427;28;20630;-53
2022/11/06 09:31:57;;;;;;;10.07;9.27;;;9.10;1.00;;;;;;6289965;28;20244;-53
2022/11/06 09:35:00;;;;;;;11.03;9.60;;;9.20;1.00;;;;;;6297801;28;20728;-54
2022/11/06 09:38:04;;;;;;;8.80;8.13;;;9.30;1.00;;;;;;6287838;28;20236;-53
2022/11/06 09:41:19;;;;;;;9.60;8.80;;;9.50;1.00;;;;;;6287060;28;20623;-54
2022/11/06 09:44:42;;;;;;;11.13;8.80;;;9.70;1.00;;;;;;6283854;28;20237;-53
2022/11/06 09:47:50;;;;;;;9.20;8.33;;;9.70;1.00;;;;;;6294856;28;20229;-53
2022/11/06 09:50:58;;;;;;;8.97;8.20;;;9.70;1.00;;;;;;6298605;28;20255;-49
2022/11/06 09:54:12;;;;;;;9.97;8.97;;;9.80;1.00;;;;;;6292597;28;20319;-53
2022/11/06 09:57:21;;;;;;;12.97;8.60;;;9.90;1.00;;;;;;6293415;28;20267;-53
2022/11/06 10:00:24;;;;;;;13.83;8.80;;;9.90;1.00;;;;;;6290672;28;20619;-53
2022/11/06 10:03:36;;;;;;;8.67;7.83;;;10.00;1.00;;;;;;6287569;28;20837;-54
2022/11/06 10:07:03;;;;;;;9.33;8.53;;;10.00;1.00;;;;;;6305006;28;20240;-53
2022/11/06 10:10:11;;;;;;;9.30;8.23;;;10.10;1.00;;;;;;6284170;28;20232;-56
2022/11/06 10:13:44;;;;;;;9.27;8.30;;;10.20;1.00;;;;;;6301251;28;20724;-55
2022/11/06 10:16:59;;;;;;;8.63;7.93;;;10.30;1.00;;;;;;6290697;28;20240;-55
2022/11/06 10:20:11;;;;;;;8.67;7.87;;;10.30;1.00;;;;;;6288439;28;21145;-54
2022/11/06 10:23:26;;;;;;;8.30;7.50;;;10.40;1.00;;;;;;6290379;28;20244;-53
2022/11/06 10:26:38;;;;;;;8.10;7.60;;;10.40;1.00;;;;;;6297309;28;20245;-53
2022/11/06 10:29:51;;;;;;;7.70;7.20;;;10.50;1.00;;;;;;6298637;28;20309;-53
2022/11/06 10:33:19;;;;;;;7.87;7.23;;;10.60;1.00;;;;;;6293654;28;20243;-53
2022/11/06 10:36:26;;;;;;;9.60;7.90;;;10.80;1.00;;;;;;6289574;28;20241;-54
2022/11/06 10:39:35;;;;;;;9.33;7.90;;;10.90;1.00;;;;;;6295905;28;20232;-52
2022/11/06 10:42:40;;;;;;;8.53;7.70;;;10.80;1.00;;;;;;6297157;28;20397;-54
2022/11/06 10:45:49;;;;;;;7.63;7.03;;;10.70;1.00;;;;;;6285943;28;20387;-53
2022/11/06 10:48:58;;;;;;;8.80;8.00;;;10.80;1.00;;;;;;6287635;28;20244;-53
2022/11/06 10:52:33;;;;;;;8.23;7.63;;;11.00;1.00;;;;;;6295338;28;20237;-56
2022/11/06 10:56:14;;;;;;;9.00;7.87;;;11.00;1.00;;;;;;6296297;28;20664;-54
2022/11/06 10:59:23;;;;;;;8.70;7.57;;;11.00;1.00;;;;;;6274653;28;20238;-54
2022/11/06 11:02:30;;;;;;;7.67;7.07;;;11.00;1.00;;;;;;6276518;28;20241;-54
2022/11/06 11:05:38;;;;;;;8.43;7.80;;;11.20;1.00;;;;;;6278814;28;20237;-53
2022/11/06 11:08:43;;;;;;;8.53;7.73;;;11.20;1.00;;;;;;6268445;28;20237;-54
2022/11/06 11:11:49;;;;;;;9.17;8.27;;;11.20;1.00;;;;;;6272424;28;20230;-53
2022/11/06 11:15:13;;;;;;;8.70;7.90;;;11.20;1.00;;;;;;6275516;28;20241;-55
2022/11/06 11:18:21;;;;;;;7.73;7.03;;;11.30;1.00;;;;;;6304019;28;20263;-54
2022/11/06 11:21:26;;;;;;;8.13;7.33;;;11.30;1.00;;;;;;6271121;28;20661;-55
2022/11/06 11:24:29;;;;;;;7.70;7.10;;;11.30;1.00;;;;;;6267113;28;20277;-58
2022/11/06 11:27:43;;;;;;;7.43;6.93;;;11.30;1.00;;;;;;6280158;28;20635;-53
2022/11/06 11:30:54;;;;;;;10.23;6.83;;;11.40;1.00;;;;;;6272962;28;20464;-52
2022/11/06 11:34:01;;;;;;;7.37;6.77;;;11.40;1.00;;;;;;6279121;28;20245;-54
2022/11/06 11:37:07;;;;;;;9.03;8.20;;;11.60;1.00;;;;;;6269092;28;20718;-54
2022/11/06 11:40:21;;;;;;;15.57;12.03;;;11.50;1.00;;;;;;6296904;28;20665;-53
2022/11/06 11:43:26;;;;;;;13.47;10.30;;;11.70;1.00;;;;;;6301573;28;20233;-54
2022/11/06 11:46:29;;;;;;;7.97;7.33;;;11.80;1.00;;;;;;6298245;28;20270;-56
2022/11/06 11:49:34;;;;;;;7.40;6.70;;;11.80;1.00;;;;;;6292866;28;20248;-54
2022/11/06 11:52:39;;;;;;;6.63;5.73;;;11.80;1.00;;;;;;6290126;28;20249;-53
2022/11/06 11:55:48;;;;;;;6.40;6.00;;;11.70;1.00;;;;;;6292061;28;20739;-53
2022/11/06 11:58:55;;;;;;;7.70;6.80;;;11.60;1.00;;;;;;6278645;28;20237;-54
2022/11/06 12:02:03;;;;;;;8.40;6.13;;;11.70;1.00;;;;;;6299483;28;20577;-55
2022/11/06 12:05:14;;;;;;;7.23;6.63;;;11.80;1.00;;;;;;6295825;28;20221;-55
2022/11/06 12:08:25;;;;;;;7.70;6.67;;;11.70;1.00;;;;;;6303758;28;20317;-54
2022/11/06 12:11:30;;;;;;;6.20;5.80;;;11.70;1.00;;;;;;6305441;28;20239;-53
2022/11/06 12:14:35;;;;;;;7.10;6.60;;;11.60;1.00;;;;;;6279862;28;20226;-53
2022/11/06 12:17:40;;;;;;;6.30;5.70;;;11.70;1.00;;;;;;6298951;28;20229;-54
2022/11/06 12:20:58;;;;;;;6.23;5.90;;;11.80;1.00;;;;;;6299224;28;20613;-53
2022/11/06 12:24:07;;;;;;;6.73;6.20;;;11.90;1.00;;;;;;6297973;28;20241;-53
2022/11/06 12:27:17;;;;;;;6.97;6.37;;;11.90;1.00;;;;;;6302103;28;20233;-58
2022/11/06 12:30:21;;;;;;;8.17;6.67;;;11.90;1.00;;;;;;6296373;28;20228;-53
2022/11/06 12:33:27;;;;;;;8.20;7.33;;;11.90;1.00;;;;;;6297686;28;20635;-53
2022/11/06 12:37:08;;;;;;;7.17;6.60;;;11.90;1.00;;;;;;6296021;28;20753;-53
2022/11/06 12:40:19;;;;;;;7.20;6.63;;;11.90;1.00;;;;;;6287385;28;20240;-52
2022/11/06 12:43:34;;;;;;;7.23;6.53;;;11.80;1.00;;;;;;6300025;28;20230;-54
2022/11/06 12:46:44;;;;;;;6.60;6.20;;;11.90;1.00;;;;;;6297955;28;20240;-57
2022/11/06 12:50:10;;;;;;;6.10;5.60;;;12.00;1.00;;;;;;6297592;28;20229;-55
2022/11/06 12:53:26;;;;;;;7.00;6.30;;;12.00;1.00;;;;;;6288973;28;20561;-60
2022/11/06 12:56:40;;;;;;;6.20;5.60;;;12.00;1.00;;;;;;6298129;28;20513;-54
2022/11/06 13:00:04;;;;;;;7.67;5.60;;;12.00;1.00;;;;;;6297834;28;20233;-53
2022/11/06 13:03:33;;;;;;;5.87;5.50;;;12.00;1.00;;;;;;6275885;28;20232;-56
2022/11/06 13:07:02;;;;;;;6.47;5.77;;;12.00;1.00;;;;;;6298262;28;20246;-58
2022/11/06 13:10:44;;;;;;;5.97;5.57;;;12.00;1.00;;;;;;6296465;28;20228;-55
2022/11/06 13:14:01;;;;;;;5.53;5.23;;;12.00;1.00;;;;;;6285665;28;20268;-53
2022/11/06 13:17:11;;;;;;;6.00;5.50;;;12.00;1.00;;;;;;6282606;28;20717;-53
2022/11/06 13:20:20;;;;;;;6.30;5.83;;;11.90;1.00;;;;;;6274098;28;20549;-54
2022/11/06 13:23:28;;;;;;;6.17;5.67;;;11.90;1.00;;;;;;6295426;28;20237;-53
2022/11/06 13:26:37;;;;;;;6.17;5.60;;;11.90;1.00;;;;;;6293945;28;20709;-55
2022/11/06 13:29:42;;;;;;;8.50;5.90;;;11.90;1.00;;;;;;6298533;28;20327;-54
2022/11/06 13:32:58;;;;;;;8.63;5.60;;;12.00;1.00;;;;;;6301522;28;20606;-53
2022/11/06 13:36:02;;;;;;;5.53;5.13;;;12.00;1.00;;;;;;6295683;28;20232;-53
2022/11/06 13:39:13;;;;;;;5.43;5.07;;;12.00;1.00;;;;;;6297294;28;20228;-51
2022/11/06 13:42:23;;;;;;;5.73;5.33;;;11.90;1.00;;;;;;6295903;28;20233;-56
2022/11/06 13:45:26;;;;;;;5.97;5.57;;;11.90;1.00;;;;;;6297389;28;20596;-54
2022/11/06 13:48:40;;;;;;;6.60;5.93;;;11.90;1.00;;;;;;6294267;28;20252;-52
2022/11/06 13:51:52;;;;;;;5.73;5.30;;;11.90;1.00;;;;;;6290044;28;20618;-56
2022/11/06 13:55:07;;;;;;;5.23;5.03;;;11.80;1.00;;;;;;6293965;28;20237;-53
2022/11/06 13:58:24;;;;;;;6.37;5.37;;;11.80;1.00;;;;;;6293636;28;20701;-55
2022/11/06 14:01:42;;;;;;;5.73;5.03;;;11.80;1.00;;;;;;6291037;28;20233;-55
2022/11/06 14:05:23;;;;;;;6.30;5.87;;;11.70;1.00;;;;;;6302527;28;20474;-53
2022/11/06 14:08:31;;;;;;;6.87;6.27;;;11.70;1.00;;;;;;6254896;28;20232;-54
2022/11/06 14:11:37;;;;;;;6.67;5.30;;;11.70;1.00;;;;;;6303453;28;20233;-53
2022/11/06 14:14:42;;;;;;;5.53;5.13;;;11.70;1.00;;;;;;6302032;28;20243;-55
2022/11/06 14:17:56;;;;;;;6.17;5.67;;;11.60;1.00;;;;;;6291079;28;20792;-55
2022/11/06 14:21:50;;;;;;;8.53;6.83;;;11.50;1.00;;;;;;6289701;28;20233;-53
2022/11/06 14:24:53;;;;;;;5.67;5.27;;;11.40;1.00;;;;;;6287427;28;20233;-54
2022/11/06 14:28:06;;;;;;;5.90;5.17;;;11.30;1.00;;;;;;6297126;28;20232;-55
2022/11/06 14:31:31;;;;;;;5.80;5.27;;;11.20;1.00;;;;;;6293414;28;20240;-53
2022/11/06 14:34:35;;;;;;;6.27;5.67;;;11.20;1.00;;;;;;6297654;28;20236;-57
2022/11/06 14:37:48;;;;;;;6.40;5.80;;;11.20;1.00;;;;;;6290865;28;20737;-54
2022/11/06 14:40:51;;;;;;;5.93;5.43;;;11.10;1.00;;;;;;6287061;28;20233;-55
2022/11/06 14:43:56;;;;;;;5.60;5.20;;;11.10;1.00;;;;;;6299060;28;20244;-55
2022/11/06 14:47:03;;;;;;;8.53;5.57;;;11.10;1.00;;;;;;6287117;28;21056;-53
2022/11/06 14:50:22;;;;;;;5.90;5.27;;;10.90;1.00;;;;;;6297963;28;20588;-53
2022/11/06 14:53:29;;;;;;;6.60;5.50;;;11.10;1.00;;;;;;6293462;28;20225;-52
2022/11/06 14:56:38;;;;;;;5.57;5.07;;;11.00;1.00;;;;;;6307077;28;20746;-59
2022/11/06 14:59:41;;;;;;;7.57;4.60;;;11.00;1.00;;;;;;6295597;28;20841;-54
2022/11/06 15:02:48;;;;;;;5.30;5.00;;;11.00;1.00;;;;;;6302052;28;20245;-57
2022/11/06 15:05:53;;;;;;;6.10;5.37;;;11.00;1.00;;;;;;6299645;28;20259;-53
2022/11/06 15:08:59;;;;;;;6.80;6.20;;;10.90;1.00;;;;;;6307476;28;20252;-53
2022/11/06 15:12:04;;;;;;;6.10;5.57;;;10.80;1.00;;;;;;6304539;28;20244;-54
2022/11/06 15:15:17;;;;;;;6.73;6.10;;;10.80;1.00;;;;;;6300712;28;20247;-52
2022/11/06 15:18:23;;;;;;;6.40;5.97;;;10.70;1.00;;;;;;6307529;28;20229;-52
2022/11/06 15:21:31;;;;;;;6.77;6.13;;;10.70;1.00;;;;;;6293172;28;20252;-53
2022/11/06 15:24:38;;;;;;;7.30;6.80;;;10.70;1.00;;;;;;6295239;28;20627;-53
2022/11/06 15:27:45;;;;;;;9.07;7.80;;;10.60;1.00;;;;;;6291013;28;20256;-55
2022/11/06 15:30:51;;;;;;;11.17;7.17;;;10.60;1.00;;;;;;6300093;28;20256;-54
2022/11/06 15:34:00;;;;;;;8.47;7.70;;;10.50;1.00;;;;;;6298446;28;20228;-53
2022/11/06 15:37:10;;;;;;;11.40;8.17;;;10.40;1.00;;;;;;6296377;27;20607;-55
2022/11/06 15:40:25;;;;;;;9.10;8.27;;;10.40;1.00;;;;;;6300127;28;20631;-54
2022/11/06 15:43:30;;;;;;;11.53;8.70;;;10.30;1.00;;;;;;6290216;28;20858;-53
2022/11/06 15:46:33;;;;;;;11.57;9.27;;;10.20;1.00;;;;;;6304820;28;20233;-52
2022/11/06 15:49:37;;;;;;;10.20;9.00;;;10.20;1.00;;;;;;6289228;28;20239;-52
2022/11/06 15:52:41;;;;;;;10.53;9.47;;;10.10;1.00;;;;;;6299919;28;20490;-53
2022/11/06 15:55:50;;;;;;;9.90;8.90;;;10.10;1.00;;;;;;6298131;28;20248;-53
2022/11/06 15:59:09;;;;;;;13.47;9.73;;;10.00;1.00;;;;;;6297142;28;20229;-53
2022/11/06 16:02:17;;;;;;;14.77;11.30;;;10.00;1.00;;;;;;6290668;28;20244;-53
2022/11/06 16:05:23;;;;;;;14.40;11.90;;;9.90;1.00;;;;;;6289525;28;20242;-55
2022/11/06 16:08:30;;;;;;;15.60;11.63;;;9.80;1.00;;;;;;6295401;28;20222;-53
2022/11/06 16:11:34;;;;;;;17.43;12.80;;;9.80;1.00;;;;;;6298753;28;20621;-52
2022/11/06 16:14:39;;;;;;;11.10;10.03;;;9.70;1.00;;;;;;6298179;28;20240;-53
2022/11/06 16:17:42;;;;;;;10.27;9.23;;;9.60;1.00;;;;;;6301218;28;20256;-53
2022/11/06 16:20:53;;;;;;;11.20;8.47;;;9.60;1.00;;;;;;6292612;28;20233;-58
2022/11/06 16:23:59;;;;;;;7.97;7.23;;;9.50;1.00;;;;;;6289741;28;20601;-54
2022/11/06 16:27:05;;;;;;;7.77;7.07;;;9.40;1.00;;;;;;6294254;28;20284;-53
2022/11/06 16:30:21;;;;;;;8.20;7.40;;;9.40;1.00;;;;;;6296668;28;20428;-53
2022/11/06 16:33:27;;;;;;;8.03;7.33;;;9.40;1.00;;;;;;6302300;28;20312;-55
2022/11/06 16:36:49;;;;;;;9.13;8.33;;;9.30;1.00;;;;;;6292069;28;20245;-53